Aeroporto :
LOGIN :

Iscrizione | Disclaimer

   EN    FR    IT 

 










Sommario :    VFR   VFR Marginale   IFR   IFR Intensivo   IFR Molto Intensivo
Visibilità : 
Base nubi : 
>= 8 km
>= 3000ft
5 / 8 km
1000 / 3000 ft
1500m / 5 km
500 / 1000 ft
800 / 1500m
200 / 500 ft
< 800m
< 200 ft
Simboli :   Temporali  Nebbia  Neve Forte  Precipitazioni Forti  Vento > 20 kt
SIGMETs :   Varie  Temporali  Ghiacco  Turbolenza  Onda orograficha  Ceneri Vulcaniche






- Altitudine del aeroporto : 300 ft
- Codice IATA : MLA


LMML - Malta Luqa

ULTIMO METAR :
  • 041815Z AUTO 32014KT CAVOK 13/10 Q1013 NOSIG

METARs OBSOLETI :
  • 041745Z 31016KT 9999 FEW025 14/10 Q1013 NOSIG
  • 041715Z 31017KT 9999 FEW025 15/10 Q1013 NOSIG
  • 041645Z 31019KT 9999 FEW025 15/10 Q1013 NOSIG
  • 041615Z 31017KT 9999 FEW029 16/10 Q1013 NOSIG
  • 041545Z 31019KT 9999 FEW029 17/10 Q1013 NOSIG

TAF TAF LMML
Valido dal 04 a 18 ore il 05 a 18 ore UTC


041700Z 0418/0518 33015KT 9999 FEW020
PROB30
TEMPO 0422/0502 BKN012



MetMap, La meteo Aeronautica in un colpo d'occhio ! - Copyright ORBIFLY Dicembre 2007 - Disclaimer

ORBIFLY MET'MAP TEAM :

Programmazione e sviluppo : Alexandra Zaïnal
Concezione : Baudouin d'Aumeries
Aiuto per la programmazione : Marc-Olivier Méhu
Supporto tecnico e logistico : Manuel Goepfert
Aiuto per la traduzione : Arnaldo La Scala

Contatto : metmap@orbifly.com




FONTI E CREDITI :

   NOAA